sensor_id;sensor_type;location;lat;lon;timestamp;P1;durP1;ratioP1;P2;durP2;ratioP2
75320;SDS011;68337;52.196;5.660;2024-02-21T00:02:11;19.10;;;7.63;;
75320;SDS011;68337;52.196;5.660;2024-02-21T00:04:37;14.60;;;7.45;;
75320;SDS011;68337;52.196;5.660;2024-02-21T00:07:03;13.45;;;7.82;;
75320;SDS011;68337;52.196;5.660;2024-02-21T00:09:29;14.27;;;7.35;;
75320;SDS011;68337;52.196;5.660;2024-02-21T00:11:55;12.77;;;7.18;;
75320;SDS011;68337;52.196;5.660;2024-02-21T00:14:21;15.57;;;7.53;;
75320;SDS011;68337;52.196;5.660;2024-02-21T00:16:47;13.82;;;6.60;;
75320;SDS011;68337;52.196;5.660;2024-02-21T00:19:12;14.35;;;7.45;;
75320;SDS011;68337;52.196;5.660;2024-02-21T00:21:39;18.75;;;7.25;;
75320;SDS011;68337;52.196;5.660;2024-02-21T00:24:05;16.98;;;7.32;;
75320;SDS011;68337;52.196;5.660;2024-02-21T00:26:31;18.73;;;7.03;;
75320;SDS011;68337;52.196;5.660;2024-02-21T00:28:57;14.52;;;6.65;;
75320;SDS011;68337;52.196;5.660;2024-02-21T00:31:23;13.43;;;7.55;;
75320;SDS011;68337;52.196;5.660;2024-02-21T00:33:48;23.25;;;7.72;;
75320;SDS011;68337;52.196;5.660;2024-02-21T00:36:15;13.55;;;6.28;;
75320;SDS011;68337;52.196;5.660;2024-02-21T00:38:41;15.93;;;7.90;;
75320;SDS011;68337;52.196;5.660;2024-02-21T00:41:07;10.73;;;7.32;;
75320;SDS011;68337;52.196;5.660;2024-02-21T00:43:32;20.08;;;6.97;;
75320;SDS011;68337;52.196;5.660;2024-02-21T00:45:58;10.63;;;6.55;;
75320;SDS011;68337;52.196;5.660;2024-02-21T00:48:24;13.80;;;6.30;;
75320;SDS011;68337;52.196;5.660;2024-02-21T00:50:50;14.73;;;7.05;;
75320;SDS011;68337;52.196;5.660;2024-02-21T00:53:15;20.83;;;6.22;;
75320;SDS011;68337;52.196;5.660;2024-02-21T00:55:41;17.50;;;7.18;;
75320;SDS011;68337;52.196;5.660;2024-02-21T00:58:08;14.63;;;6.75;;
75320;SDS011;68337;52.196;5.660;2024-02-21T01:00:34;13.15;;;6.35;;
75320;SDS011;68337;52.196;5.660;2024-02-21T01:02:59;10.82;;;6.53;;
75320;SDS011;68337;52.196;5.660;2024-02-21T01:05:25;15.32;;;6.30;;
75320;SDS011;68337;52.196;5.660;2024-02-21T01:07:53;11.82;;;6.53;;
75320;SDS011;68337;52.196;5.660;2024-02-21T01:10:18;12.43;;;6.07;;
75320;SDS011;68337;52.196;5.660;2024-02-21T01:12:44;15.25;;;6.25;;
75320;SDS011;68337;52.196;5.660;2024-02-21T01:15:10;16.13;;;6.47;;
75320;SDS011;68337;52.196;5.660;2024-02-21T01:17:36;16.83;;;6.43;;
75320;SDS011;68337;52.196;5.660;2024-02-21T01:20:03;12.32;;;5.65;;
75320;SDS011;68337;52.196;5.660;2024-02-21T01:22:30;10.82;;;5.43;;
75320;SDS011;68337;52.196;5.660;2024-02-21T01:24:56;19.00;;;6.57;;
75320;SDS011;68337;52.196;5.660;2024-02-21T01:27:22;18.48;;;6.55;;
75320;SDS011;68337;52.196;5.660;2024-02-21T01:29:47;17.77;;;6.78;;
75320;SDS011;68337;52.196;5.660;2024-02-21T01:32:15;14.55;;;7.30;;
75320;SDS011;68337;52.196;5.660;2024-02-21T01:34:41;18.10;;;6.63;;
75320;SDS011;68337;52.196;5.660;2024-02-21T01:37:09;17.95;;;6.15;;
75320;SDS011;68337;52.196;5.660;2024-02-21T01:39:35;15.75;;;6.70;;
75320;SDS011;68337;52.196;5.660;2024-02-21T01:42:01;15.95;;;6.97;;
75320;SDS011;68337;52.196;5.660;2024-02-21T01:44:26;14.68;;;6.07;;
75320;SDS011;68337;52.196;5.660;2024-02-21T01:46:52;17.05;;;7.60;;
75320;SDS011;68337;52.196;5.660;2024-02-21T01:49:19;16.27;;;6.13;;
75320;SDS011;68337;52.196;5.660;2024-02-21T01:51:45;20.23;;;7.50;;
75320;SDS011;68337;52.196;5.660;2024-02-21T01:54:12;19.70;;;7.15;;
75320;SDS011;68337;52.196;5.660;2024-02-21T01:56:40;17.60;;;6.60;;
75320;SDS011;68337;52.196;5.660;2024-02-21T01:59:07;13.45;;;6.80;;
75320;SDS011;68337;52.196;5.660;2024-02-21T02:01:33;14.45;;;7.57;;
75320;SDS011;68337;52.196;5.660;2024-02-21T02:03:59;18.35;;;7.93;;
75320;SDS011;68337;52.196;5.660;2024-02-21T02:06:24;21.02;;;7.15;;
75320;SDS011;68337;52.196;5.660;2024-02-21T02:08:50;16.35;;;7.85;;
75320;SDS011;68337;52.196;5.660;2024-02-21T02:11:16;18.23;;;8.20;;
75320;SDS011;68337;52.196;5.660;2024-02-21T02:13:42;18.63;;;8.43;;
75320;SDS011;68337;52.196;5.660;2024-02-21T02:16:08;13.68;;;7.80;;
75320;SDS011;68337;52.196;5.660;2024-02-21T02:18:34;17.40;;;8.35;;
75320;SDS011;68337;52.196;5.660;2024-02-21T02:20:59;16.10;;;8.18;;
75320;SDS011;68337;52.196;5.660;2024-02-21T02:23:25;19.08;;;8.55;;
75320;SDS011;68337;52.196;5.660;2024-02-21T02:25:53;20.75;;;8.52;;
75320;SDS011;68337;52.196;5.660;2024-02-21T02:28:19;25.25;;;9.35;;
75320;SDS011;68337;52.196;5.660;2024-02-21T02:30:45;16.65;;;8.80;;
75320;SDS011;68337;52.196;5.660;2024-02-21T02:33:11;17.10;;;8.48;;
75320;SDS011;68337;52.196;5.660;2024-02-21T02:35:37;17.75;;;8.27;;
75320;SDS011;68337;52.196;5.660;2024-02-21T02:38:03;17.70;;;8.63;;
75320;SDS011;68337;52.196;5.660;2024-02-21T02:40:29;14.70;;;8.02;;
75320;SDS011;68337;52.196;5.660;2024-02-21T02:42:56;17.52;;;9.35;;
75320;SDS011;68337;52.196;5.660;2024-02-21T02:45:22;12.90;;;7.63;;
75320;SDS011;68337;52.196;5.660;2024-02-21T02:47:49;21.08;;;8.63;;
75320;SDS011;68337;52.196;5.660;2024-02-21T02:50:15;13.32;;;8.10;;
75320;SDS011;68337;52.196;5.660;2024-02-21T02:52:40;20.30;;;8.40;;
75320;SDS011;68337;52.196;5.660;2024-02-21T02:55:06;23.48;;;8.95;;
75320;SDS011;68337;52.196;5.660;2024-02-21T02:57:32;15.32;;;9.18;;
75320;SDS011;68337;52.196;5.660;2024-02-21T02:59:58;20.02;;;8.45;;
75320;SDS011;68337;52.196;5.660;2024-02-21T03:02:24;24.60;;;9.18;;
75320;SDS011;68337;52.196;5.660;2024-02-21T03:04:50;22.90;;;9.90;;
75320;SDS011;68337;52.196;5.660;2024-02-21T03:07:15;20.70;;;9.40;;
75320;SDS011;68337;52.196;5.660;2024-02-21T03:09:41;18.95;;;10.13;;
75320;SDS011;68337;52.196;5.660;2024-02-21T03:12:08;18.15;;;9.70;;
75320;SDS011;68337;52.196;5.660;2024-02-21T03:14:34;19.90;;;9.10;;
75320;SDS011;68337;52.196;5.660;2024-02-21T03:17:00;17.00;;;9.48;;
75320;SDS011;68337;52.196;5.660;2024-02-21T03:19:27;20.23;;;9.50;;
75320;SDS011;68337;52.196;5.660;2024-02-21T03:21:53;18.70;;;8.60;;
75320;SDS011;68337;52.196;5.660;2024-02-21T03:24:19;18.40;;;9.20;;
75320;SDS011;68337;52.196;5.660;2024-02-21T03:26:46;16.25;;;8.57;;
75320;SDS011;68337;52.196;5.660;2024-02-21T03:29:14;18.27;;;8.68;;
75320;SDS011;68337;52.196;5.660;2024-02-21T03:31:40;25.50;;;9.48;;
75320;SDS011;68337;52.196;5.660;2024-02-21T03:34:07;19.70;;;9.13;;
75320;SDS011;68337;52.196;5.660;2024-02-21T03:36:32;19.92;;;8.48;;
75320;SDS011;68337;52.196;5.660;2024-02-21T03:38:58;17.00;;;7.85;;
75320;SDS011;68337;52.196;5.660;2024-02-21T03:41:24;22.13;;;8.57;;
75320;SDS011;68337;52.196;5.660;2024-02-21T03:43:50;19.55;;;8.70;;
75320;SDS011;68337;52.196;5.660;2024-02-21T03:46:15;19.45;;;8.98;;
75320;SDS011;68337;52.196;5.660;2024-02-21T03:48:41;16.60;;;9.07;;
75320;SDS011;68337;52.196;5.660;2024-02-21T03:51:07;12.68;;;7.75;;
75320;SDS011;68337;52.196;5.660;2024-02-21T03:53:33;15.63;;;8.65;;
75320;SDS011;68337;52.196;5.660;2024-02-21T03:56:01;20.08;;;9.23;;
75320;SDS011;68337;52.196;5.660;2024-02-21T03:58:29;24.73;;;9.52;;
75320;SDS011;68337;52.196;5.660;2024-02-21T04:00:55;23.50;;;9.05;;
75320;SDS011;68337;52.196;5.660;2024-02-21T04:03:21;20.67;;;8.65;;
75320;SDS011;68337;52.196;5.660;2024-02-21T04:05:46;28.35;;;11.27;;
75320;SDS011;68337;52.196;5.660;2024-02-21T04:08:13;20.92;;;10.27;;
75320;SDS011;68337;52.196;5.660;2024-02-21T04:10:39;15.63;;;8.80;;
75320;SDS011;68337;52.196;5.660;2024-02-21T04:13:06;21.45;;;9.38;;
75320;SDS011;68337;52.196;5.660;2024-02-21T04:15:32;18.15;;;9.48;;
75320;SDS011;68337;52.196;5.660;2024-02-21T04:17:57;21.35;;;10.55;;
75320;SDS011;68337;52.196;5.660;2024-02-21T04:20:23;20.45;;;9.00;;
75320;SDS011;68337;52.196;5.660;2024-02-21T04:22:49;20.60;;;9.60;;
75320;SDS011;68337;52.196;5.660;2024-02-21T04:25:15;18.25;;;8.55;;
75320;SDS011;68337;52.196;5.660;2024-02-21T04:27:40;18.75;;;8.48;;
75320;SDS011;68337;52.196;5.660;2024-02-21T04:30:07;18.00;;;8.52;;
75320;SDS011;68337;52.196;5.660;2024-02-21T04:32:34;18.50;;;9.05;;
75320;SDS011;68337;52.196;5.660;2024-02-21T04:35:00;19.80;;;8.93;;
75320;SDS011;68337;52.196;5.660;2024-02-21T04:37:26;22.00;;;9.35;;
75320;SDS011;68337;52.196;5.660;2024-02-21T04:39:52;17.23;;;9.13;;
75320;SDS011;68337;52.196;5.660;2024-02-21T04:42:17;15.27;;;7.65;;
75320;SDS011;68337;52.196;5.660;2024-02-21T04:44:43;13.68;;;8.00;;
75320;SDS011;68337;52.196;5.660;2024-02-21T04:47:09;15.73;;;8.60;;
75320;SDS011;68337;52.196;5.660;2024-02-21T04:49:35;17.88;;;8.02;;
75320;SDS011;68337;52.196;5.660;2024-02-21T04:52:00;22.05;;;8.98;;
75320;SDS011;68337;52.196;5.660;2024-02-21T04:54:26;17.15;;;8.48;;
75320;SDS011;68337;52.196;5.660;2024-02-21T04:56:52;20.45;;;9.15;;
75320;SDS011;68337;52.196;5.660;2024-02-21T04:59:18;18.52;;;9.25;;
75320;SDS011;68337;52.196;5.660;2024-02-21T05:01:44;17.27;;;9.70;;
75320;SDS011;68337;52.196;5.660;2024-02-21T05:04:10;16.30;;;8.75;;
75320;SDS011;68337;52.196;5.660;2024-02-21T05:06:37;14.15;;;9.10;;
75320;SDS011;68337;52.196;5.660;2024-02-21T05:09:04;16.23;;;8.02;;
75320;SDS011;68337;52.196;5.660;2024-02-21T05:11:30;20.83;;;8.80;;
75320;SDS011;68337;52.196;5.660;2024-02-21T05:13:56;17.17;;;8.60;;
75320;SDS011;68337;52.196;5.660;2024-02-21T05:16:22;15.55;;;8.50;;
75320;SDS011;68337;52.196;5.660;2024-02-21T05:18:48;23.08;;;8.40;;
75320;SDS011;68337;52.196;5.660;2024-02-21T05:21:13;21.50;;;9.65;;
75320;SDS011;68337;52.196;5.660;2024-02-21T05:23:39;19.30;;;8.35;;
75320;SDS011;68337;52.196;5.660;2024-02-21T05:26:05;13.65;;;8.57;;
75320;SDS011;68337;52.196;5.660;2024-02-21T05:28:31;15.57;;;7.63;;
75320;SDS011;68337;52.196;5.660;2024-02-21T05:30:57;16.13;;;8.05;;
75320;SDS011;68337;52.196;5.660;2024-02-21T05:33:23;13.23;;;8.40;;
75320;SDS011;68337;52.196;5.660;2024-02-21T05:35:49;11.43;;;8.50;;
75320;SDS011;68337;52.196;5.660;2024-02-21T05:38:16;16.50;;;9.38;;
75320;SDS011;68337;52.196;5.660;2024-02-21T05:40:42;13.35;;;8.70;;
75320;SDS011;68337;52.196;5.660;2024-02-21T05:43:08;14.77;;;8.90;;
75320;SDS011;68337;52.196;5.660;2024-02-21T05:45:34;11.48;;;8.13;;
75320;SDS011;68337;52.196;5.660;2024-02-21T05:48:00;15.05;;;9.10;;
75320;SDS011;68337;52.196;5.660;2024-02-21T05:50:26;14.05;;;9.05;;
75320;SDS011;68337;52.196;5.660;2024-02-21T05:52:54;17.05;;;8.73;;
75320;SDS011;68337;52.196;5.660;2024-02-21T05:55:20;18.40;;;8.98;;
75320;SDS011;68337;52.196;5.660;2024-02-21T05:57:46;18.67;;;9.73;;
75320;SDS011;68337;52.196;5.660;2024-02-21T06:00:12;18.02;;;9.25;;
75320;SDS011;68337;52.196;5.660;2024-02-21T06:02:39;18.55;;;9.30;;
75320;SDS011;68337;52.196;5.660;2024-02-21T06:05:05;15.75;;;9.50;;
75320;SDS011;68337;52.196;5.660;2024-02-21T06:07:32;18.15;;;9.52;;
75320;SDS011;68337;52.196;5.660;2024-02-21T06:09:59;15.52;;;10.25;;
75320;SDS011;68337;52.196;5.660;2024-02-21T06:12:26;21.75;;;9.63;;
75320;SDS011;68337;52.196;5.660;2024-02-21T06:14:52;18.48;;;9.15;;
75320;SDS011;68337;52.196;5.660;2024-02-21T06:17:18;18.55;;;10.70;;
75320;SDS011;68337;52.196;5.660;2024-02-21T06:19:43;16.30;;;9.98;;
75320;SDS011;68337;52.196;5.660;2024-02-21T06:22:10;13.07;;;9.70;;
75320;SDS011;68337;52.196;5.660;2024-02-21T06:24:36;20.33;;;10.65;;
75320;SDS011;68337;52.196;5.660;2024-02-21T06:27:03;17.42;;;10.85;;
75320;SDS011;68337;52.196;5.660;2024-02-21T06:29:31;18.30;;;10.88;;
75320;SDS011;68337;52.196;5.660;2024-02-21T06:31:57;15.27;;;10.52;;
75320;SDS011;68337;52.196;5.660;2024-02-21T06:34:23;16.00;;;10.85;;
75320;SDS011;68337;52.196;5.660;2024-02-21T06:36:49;20.23;;;12.63;;
75320;SDS011;68337;52.196;5.660;2024-02-21T06:39:15;22.80;;;13.30;;
75320;SDS011;68337;52.196;5.660;2024-02-21T06:41:41;23.08;;;12.13;;
75320;SDS011;68337;52.196;5.660;2024-02-21T06:44:07;20.98;;;12.15;;
75320;SDS011;68337;52.196;5.660;2024-02-21T06:46:33;28.88;;;15.38;;
75320;SDS011;68337;52.196;5.660;2024-02-21T06:48:59;29.77;;;15.55;;
75320;SDS011;68337;52.196;5.660;2024-02-21T06:51:26;24.33;;;13.27;;
75320;SDS011;68337;52.196;5.660;2024-02-21T06:53:52;26.63;;;14.77;;
75320;SDS011;68337;52.196;5.660;2024-02-21T06:56:18;29.75;;;15.52;;
75320;SDS011;68337;52.196;5.660;2024-02-21T06:58:44;32.45;;;15.77;;
75320;SDS011;68337;52.196;5.660;2024-02-21T07:01:10;29.15;;;17.05;;
75320;SDS011;68337;52.196;5.660;2024-02-21T07:03:36;31.88;;;16.08;;
75320;SDS011;68337;52.196;5.660;2024-02-21T07:06:02;34.20;;;16.83;;
75320;SDS011;68337;52.196;5.660;2024-02-21T07:08:28;33.47;;;18.55;;
75320;SDS011;68337;52.196;5.660;2024-02-21T07:10:54;29.90;;;16.73;;
75320;SDS011;68337;52.196;5.660;2024-02-21T07:13:20;28.60;;;16.30;;
75320;SDS011;68337;52.196;5.660;2024-02-21T07:15:47;26.63;;;17.05;;
75320;SDS011;68337;52.196;5.660;2024-02-21T07:18:13;28.80;;;17.00;;
75320;SDS011;68337;52.196;5.660;2024-02-21T07:20:39;30.55;;;16.58;;
75320;SDS011;68337;52.196;5.660;2024-02-21T07:23:06;33.05;;;16.00;;
75320;SDS011;68337;52.196;5.660;2024-02-21T07:25:33;26.17;;;16.08;;
75320;SDS011;68337;52.196;5.660;2024-02-21T07:27:59;28.60;;;16.08;;
75320;SDS011;68337;52.196;5.660;2024-02-21T07:30:25;27.77;;;15.00;;
75320;SDS011;68337;52.196;5.660;2024-02-21T07:32:51;32.42;;;15.30;;
75320;SDS011;68337;52.196;5.660;2024-02-21T07:35:17;29.00;;;14.07;;
75320;SDS011;68337;52.196;5.660;2024-02-21T07:37:43;27.38;;;13.82;;
75320;SDS011;68337;52.196;5.660;2024-02-21T07:40:15;30.90;;;14.10;;
75320;SDS011;68337;52.196;5.660;2024-02-21T07:42:42;24.30;;;13.10;;
75320;SDS011;68337;52.196;5.660;2024-02-21T07:45:08;23.98;;;14.15;;
75320;SDS011;68337;52.196;5.660;2024-02-21T07:47:35;30.88;;;13.88;;
75320;SDS011;68337;52.196;5.660;2024-02-21T07:50:01;23.17;;;11.73;;
75320;SDS011;68337;52.196;5.660;2024-02-21T07:52:28;20.13;;;12.55;;
75320;SDS011;68337;52.196;5.660;2024-02-21T07:54:53;25.40;;;12.50;;
75320;SDS011;68337;52.196;5.660;2024-02-21T07:57:19;24.02;;;12.98;;
75320;SDS011;68337;52.196;5.660;2024-02-21T07:59:46;18.95;;;10.77;;
75320;SDS011;68337;52.196;5.660;2024-02-21T08:02:13;21.35;;;11.60;;
75320;SDS011;68337;52.196;5.660;2024-02-21T08:04:39;27.05;;;11.23;;
75320;SDS011;68337;52.196;5.660;2024-02-21T08:07:05;21.20;;;11.93;;
75320;SDS011;68337;52.196;5.660;2024-02-21T08:09:30;23.00;;;11.13;;
75320;SDS011;68337;52.196;5.660;2024-02-21T08:11:56;25.90;;;11.02;;
75320;SDS011;68337;52.196;5.660;2024-02-21T08:14:22;18.92;;;11.10;;
75320;SDS011;68337;52.196;5.660;2024-02-21T08:16:50;19.92;;;9.77;;
75320;SDS011;68337;52.196;5.660;2024-02-21T08:19:18;18.65;;;9.80;;
75320;SDS011;68337;52.196;5.660;2024-02-21T08:21:44;19.65;;;10.30;;
75320;SDS011;68337;52.196;5.660;2024-02-21T08:24:12;19.92;;;10.05;;
75320;SDS011;68337;52.196;5.660;2024-02-21T08:26:40;19.85;;;10.80;;
75320;SDS011;68337;52.196;5.660;2024-02-21T08:29:06;21.98;;;10.60;;
75320;SDS011;68337;52.196;5.660;2024-02-21T08:31:32;28.58;;;11.27;;
75320;SDS011;68337;52.196;5.660;2024-02-21T08:33:59;21.85;;;10.52;;
75320;SDS011;68337;52.196;5.660;2024-02-21T08:36:32;21.75;;;10.73;;
75320;SDS011;68337;52.196;5.660;2024-02-21T08:38:59;22.08;;;11.13;;
75320;SDS011;68337;52.196;5.660;2024-02-21T08:41:26;18.27;;;10.32;;
75320;SDS011;68337;52.196;5.660;2024-02-21T08:43:52;19.58;;;10.65;;
75320;SDS011;68337;52.196;5.660;2024-02-21T08:46:20;23.02;;;11.23;;
75320;SDS011;68337;52.196;5.660;2024-02-21T08:48:46;22.30;;;10.57;;
75320;SDS011;68337;52.196;5.660;2024-02-21T08:51:12;24.23;;;10.80;;
75320;SDS011;68337;52.196;5.660;2024-02-21T08:53:39;19.95;;;11.18;;
75320;SDS011;68337;52.196;5.660;2024-02-21T08:56:05;20.25;;;11.15;;
75320;SDS011;68337;52.196;5.660;2024-02-21T08:58:32;20.33;;;11.32;;
75320;SDS011;68337;52.196;5.660;2024-02-21T09:00:58;22.13;;;10.52;;
75320;SDS011;68337;52.196;5.660;2024-02-21T09:03:24;25.60;;;10.07;;
75320;SDS011;68337;52.196;5.660;2024-02-21T09:05:50;20.77;;;11.25;;
75320;SDS011;68337;52.196;5.660;2024-02-21T09:08:16;20.77;;;11.65;;
75320;SDS011;68337;52.196;5.660;2024-02-21T09:10:41;21.42;;;10.40;;
75320;SDS011;68337;52.196;5.660;2024-02-21T09:13:07;19.35;;;11.25;;
75320;SDS011;68337;52.196;5.660;2024-02-21T09:15:33;16.02;;;10.23;;
75320;SDS011;68337;52.196;5.660;2024-02-21T09:17:59;22.45;;;11.18;;
75320;SDS011;68337;52.196;5.660;2024-02-21T09:20:25;17.50;;;10.18;;
75320;SDS011;68337;52.196;5.660;2024-02-21T09:22:51;17.05;;;9.93;;
75320;SDS011;68337;52.196;5.660;2024-02-21T09:25:18;17.25;;;10.05;;
75320;SDS011;68337;52.196;5.660;2024-02-21T09:27:44;20.00;;;10.25;;
75320;SDS011;68337;52.196;5.660;2024-02-21T09:30:10;16.75;;;9.40;;
75320;SDS011;68337;52.196;5.660;2024-02-21T09:32:37;21.52;;;10.48;;
75320;SDS011;68337;52.196;5.660;2024-02-21T09:35:03;17.92;;;10.05;;
75320;SDS011;68337;52.196;5.660;2024-02-21T09:37:30;18.00;;;9.98;;
75320;SDS011;68337;52.196;5.660;2024-02-21T09:39:56;15.63;;;9.85;;
75320;SDS011;68337;52.196;5.660;2024-02-21T09:42:22;16.85;;;9.18;;
75320;SDS011;68337;52.196;5.660;2024-02-21T09:44:56;18.70;;;9.80;;
75320;SDS011;68337;52.196;5.660;2024-02-21T09:47:24;15.70;;;9.02;;
75320;SDS011;68337;52.196;5.660;2024-02-21T09:49:56;18.17;;;9.10;;
75320;SDS011;68337;52.196;5.660;2024-02-21T09:52:23;15.48;;;9.57;;
75320;SDS011;68337;52.196;5.660;2024-02-21T09:54:50;15.02;;;8.88;;
75320;SDS011;68337;52.196;5.660;2024-02-21T09:57:18;14.35;;;8.02;;
75320;SDS011;68337;52.196;5.660;2024-02-21T09:59:45;15.45;;;8.73;;
75320;SDS011;68337;52.196;5.660;2024-02-21T10:02:11;23.77;;;9.15;;
75320;SDS011;68337;52.196;5.660;2024-02-21T10:04:39;11.18;;;8.02;;
75320;SDS011;68337;52.196;5.660;2024-02-21T10:07:05;16.48;;;8.35;;
75320;SDS011;68337;52.196;5.660;2024-02-21T10:09:32;18.60;;;8.65;;
75320;SDS011;68337;52.196;5.660;2024-02-21T10:12:11;14.98;;;8.57;;
75320;SDS011;68337;52.196;5.660;2024-02-21T10:14:37;22.75;;;11.40;;
75320;SDS011;68337;52.196;5.660;2024-02-21T10:17:03;17.90;;;9.45;;
75320;SDS011;68337;52.196;5.660;2024-02-21T10:19:34;11.75;;;8.60;;
75320;SDS011;68337;52.196;5.660;2024-02-21T10:22:05;14.50;;;9.25;;
75320;SDS011;68337;52.196;5.660;2024-02-21T10:24:33;17.23;;;8.30;;
75320;SDS011;68337;52.196;5.660;2024-02-21T10:27:06;11.73;;;8.10;;
75320;SDS011;68337;52.196;5.660;2024-02-21T10:29:35;16.50;;;8.52;;
75320;SDS011;68337;52.196;5.660;2024-02-21T10:34:33;11.20;;;6.72;;
75320;SDS011;68337;52.196;5.660;2024-02-21T10:37:01;13.65;;;7.63;;
75320;SDS011;68337;52.196;5.660;2024-02-21T10:39:28;9.05;;;7.35;;
75320;SDS011;68337;52.196;5.660;2024-02-21T10:41:55;10.82;;;6.60;;
75320;SDS011;68337;52.196;5.660;2024-02-21T10:44:27;12.95;;;6.80;;
75320;SDS011;68337;52.196;5.660;2024-02-21T10:46:55;10.82;;;7.75;;
75320;SDS011;68337;52.196;5.660;2024-02-21T10:49:23;10.90;;;6.70;;
75320;SDS011;68337;52.196;5.660;2024-02-21T10:51:52;12.82;;;6.47;;
75320;SDS011;68337;52.196;5.660;2024-02-21T10:57:04;9.40;;;5.90;;
75320;SDS011;68337;52.196;5.660;2024-02-21T10:59:31;9.00;;;5.50;;
75320;SDS011;68337;52.196;5.660;2024-02-21T11:01:58;8.57;;;5.45;;
75320;SDS011;68337;52.196;5.660;2024-02-21T11:04:24;7.00;;;5.68;;
75320;SDS011;68337;52.196;5.660;2024-02-21T11:06:51;6.05;;;4.80;;
75320;SDS011;68337;52.196;5.660;2024-02-21T11:09:17;6.78;;;5.32;;
75320;SDS011;68337;52.196;5.660;2024-02-21T11:11:44;9.27;;;5.63;;
75320;SDS011;68337;52.196;5.660;2024-02-21T11:16:37;7.10;;;5.50;;
75320;SDS011;68337;52.196;5.660;2024-02-21T11:19:08;8.80;;;6.25;;
75320;SDS011;68337;52.196;5.660;2024-02-21T11:21:36;7.78;;;5.93;;
75320;SDS011;68337;52.196;5.660;2024-02-21T11:24:03;8.43;;;6.25;;
75320;SDS011;68337;52.196;5.660;2024-02-21T11:26:30;6.72;;;5.85;;
75320;SDS011;68337;52.196;5.660;2024-02-21T11:28:57;7.97;;;6.07;;
75320;SDS011;68337;52.196;5.660;2024-02-21T11:31:25;6.78;;;6.07;;
75320;SDS011;68337;52.196;5.660;2024-02-21T11:33:52;7.50;;;5.97;;
75320;SDS011;68337;52.196;5.660;2024-02-21T11:36:23;7.25;;;6.00;;
75320;SDS011;68337;52.196;5.660;2024-02-21T11:38:50;7.78;;;6.72;;
75320;SDS011;68337;52.196;5.660;2024-02-21T11:41:17;10.07;;;6.72;;
75320;SDS011;68337;52.196;5.660;2024-02-21T11:43:42;10.32;;;7.03;;
75320;SDS011;68337;52.196;5.660;2024-02-21T11:46:08;13.80;;;7.68;;
75320;SDS011;68337;52.196;5.660;2024-02-21T11:48:34;11.05;;;7.38;;
75320;SDS011;68337;52.196;5.660;2024-02-21T11:51:00;10.02;;;7.45;;
75320;SDS011;68337;52.196;5.660;2024-02-21T11:53:26;9.60;;;7.68;;
75320;SDS011;68337;52.196;5.660;2024-02-21T11:55:56;10.02;;;7.78;;
75320;SDS011;68337;52.196;5.660;2024-02-21T11:58:22;10.68;;;7.82;;
75320;SDS011;68337;52.196;5.660;2024-02-21T12:00:48;9.57;;;7.47;;
75320;SDS011;68337;52.196;5.660;2024-02-21T12:03:14;12.43;;;8.35;;
75320;SDS011;68337;52.196;5.660;2024-02-21T12:05:41;12.57;;;8.30;;
75320;SDS011;68337;52.196;5.660;2024-02-21T12:08:07;11.82;;;8.02;;
75320;SDS011;68337;52.196;5.660;2024-02-21T12:10:33;9.40;;;8.13;;
75320;SDS011;68337;52.196;5.660;2024-02-21T12:13:05;10.73;;;8.13;;
75320;SDS011;68337;52.196;5.660;2024-02-21T12:15:33;12.45;;;7.90;;
75320;SDS011;68337;52.196;5.660;2024-02-21T12:17:59;9.88;;;8.05;;
75320;SDS011;68337;52.196;5.660;2024-02-21T12:20:25;15.43;;;9.13;;
75320;SDS011;68337;52.196;5.660;2024-02-21T12:22:51;13.07;;;9.25;;
75320;SDS011;68337;52.196;5.660;2024-02-21T12:25:19;10.52;;;7.82;;
75320;SDS011;68337;52.196;5.660;2024-02-21T12:27:48;13.70;;;7.97;;
75320;SDS011;68337;52.196;5.660;2024-02-21T12:30:14;10.50;;;7.68;;
75320;SDS011;68337;52.196;5.660;2024-02-21T12:32:40;9.82;;;7.22;;
75320;SDS011;68337;52.196;5.660;2024-02-21T12:35:06;11.55;;;6.45;;
75320;SDS011;68337;52.196;5.660;2024-02-21T12:37:32;10.80;;;6.43;;
75320;SDS011;68337;52.196;5.660;2024-02-21T12:39:58;10.40;;;6.20;;
75320;SDS011;68337;52.196;5.660;2024-02-21T12:42:25;13.48;;;7.25;;
75320;SDS011;68337;52.196;5.660;2024-02-21T12:44:51;12.82;;;6.57;;
75320;SDS011;68337;52.196;5.660;2024-02-21T12:47:18;10.25;;;7.40;;
75320;SDS011;68337;52.196;5.660;2024-02-21T12:49:45;13.57;;;7.78;;
75320;SDS011;68337;52.196;5.660;2024-02-21T12:52:11;9.40;;;6.63;;
75320;SDS011;68337;52.196;5.660;2024-02-21T12:54:38;9.32;;;6.00;;
75320;SDS011;68337;52.196;5.660;2024-02-21T12:57:04;15.75;;;8.27;;
75320;SDS011;68337;52.196;5.660;2024-02-21T12:59:30;11.32;;;6.22;;
75320;SDS011;68337;52.196;5.660;2024-02-21T13:01:56;11.63;;;6.25;;
75320;SDS011;68337;52.196;5.660;2024-02-21T13:04:21;8.60;;;6.00;;
75320;SDS011;68337;52.196;5.660;2024-02-21T13:06:48;8.85;;;5.68;;
75320;SDS011;68337;52.196;5.660;2024-02-21T13:09:14;9.70;;;6.70;;
75320;SDS011;68337;52.196;5.660;2024-02-21T13:11:40;8.00;;;5.10;;
75320;SDS011;68337;52.196;5.660;2024-02-21T13:14:08;13.63;;;5.72;;
75320;SDS011;68337;52.196;5.660;2024-02-21T13:16:33;5.95;;;4.85;;
75320;SDS011;68337;52.196;5.660;2024-02-21T13:19:04;10.95;;;6.03;;
75320;SDS011;68337;52.196;5.660;2024-02-21T13:21:30;7.85;;;4.95;;
75320;SDS011;68337;52.196;5.660;2024-02-21T13:23:56;8.50;;;5.13;;
75320;SDS011;68337;52.196;5.660;2024-02-21T13:26:22;11.15;;;4.90;;
75320;SDS011;68337;52.196;5.660;2024-02-21T13:28:48;9.82;;;5.28;;
75320;SDS011;68337;52.196;5.660;2024-02-21T13:31:14;12.63;;;5.18;;
75320;SDS011;68337;52.196;5.660;2024-02-21T13:33:41;9.07;;;5.40;;
75320;SDS011;68337;52.196;5.660;2024-02-21T13:36:09;10.15;;;5.18;;
75320;SDS011;68337;52.196;5.660;2024-02-21T13:38:35;9.45;;;5.20;;
75320;SDS011;68337;52.196;5.660;2024-02-21T13:41:01;9.68;;;5.00;;
75320;SDS011;68337;52.196;5.660;2024-02-21T13:43:27;7.97;;;5.10;;
75320;SDS011;68337;52.196;5.660;2024-02-21T13:46:00;7.85;;;5.10;;
75320;SDS011;68337;52.196;5.660;2024-02-21T13:48:28;7.03;;;5.00;;
75320;SDS011;68337;52.196;5.660;2024-02-21T13:50:55;7.28;;;4.95;;
75320;SDS011;68337;52.196;5.660;2024-02-21T13:53:21;6.25;;;4.30;;
75320;SDS011;68337;52.196;5.660;2024-02-21T13:55:48;7.25;;;5.20;;
75320;SDS011;68337;52.196;5.660;2024-02-21T13:58:14;9.02;;;5.55;;
75320;SDS011;68337;52.196;5.660;2024-02-21T14:00:41;9.50;;;4.97;;
75320;SDS011;68337;52.196;5.660;2024-02-21T14:03:06;11.55;;;5.15;;
75320;SDS011;68337;52.196;5.660;2024-02-21T14:05:32;6.60;;;4.93;;
75320;SDS011;68337;52.196;5.660;2024-02-21T14:07:58;8.35;;;4.72;;
75320;SDS011;68337;52.196;5.660;2024-02-21T14:10:24;8.45;;;5.20;;
75320;SDS011;68337;52.196;5.660;2024-02-21T14:12:49;11.02;;;5.60;;
75320;SDS011;68337;52.196;5.660;2024-02-21T14:15:15;13.75;;;5.00;;
75320;SDS011;68337;52.196;5.660;2024-02-21T14:17:42;9.98;;;5.78;;
75320;SDS011;68337;52.196;5.660;2024-02-21T14:20:08;12.10;;;5.40;;
75320;SDS011;68337;52.196;5.660;2024-02-21T14:22:34;7.30;;;4.32;;
75320;SDS011;68337;52.196;5.660;2024-02-21T14:25:02;8.25;;;4.32;;
75320;SDS011;68337;52.196;5.660;2024-02-21T14:27:30;10.82;;;4.95;;
75320;SDS011;68337;52.196;5.660;2024-02-21T14:29:57;8.57;;;4.47;;
75320;SDS011;68337;52.196;5.660;2024-02-21T14:32:23;8.85;;;4.70;;
75320;SDS011;68337;52.196;5.660;2024-02-21T14:34:49;13.50;;;5.43;;
75320;SDS011;68337;52.196;5.660;2024-02-21T14:37:15;8.73;;;4.53;;